This is the latest recevied weather packets stored in our database for station/object DJ8HS-1. If no packets are shown the sender has not sent any weather packets the latest 10 day(s).
| Time | Temp. | Humidity | Pressure | Rain* | Wind** | Luminosity | Snow |
|---|---|---|---|---|---|---|---|
| 1777912797 | 20° C | 53% | 0 hPa | 0 mm | - | - | - |
| 1777912497 | 20° C | 53% | 0 hPa | 0 mm | - | - | - |
| 1777911596 | 20° C | 52% | 0 hPa | 0 mm | - | - | - |
| 1777911296 | 20° C | 52% | 0 hPa | 0 mm | - | - | - |
| 1777909194 | 21.11° C | 49% | 0 hPa | 0 mm | - | - | - |
| 1777908893 | 21.11° C | 49% | 0 hPa | 0 mm | - | - | - |
| 1777908293 | 21.11° C | 48% | 0 hPa | 0 mm | - | - | - |
| 1777907692 | 21.11° C | 49% | 0 hPa | 0 mm | - | - | - |
| 1777907092 | 21.11° C | 48% | 0 hPa | 0 mm | - | - | - |
| 1777906491 | 21.67° C | 47% | 0 hPa | 0 mm | - | - | - |
| 1777905890 | 22.22° C | 47% | 0 hPa | 0 mm | - | - | - |
| 1777905590 | 22.22° C | 46% | 0 hPa | 0 mm | - | - | - |
| 1777905290 | 22.22° C | 45% | 0 hPa | 0 mm | - | - | - |
| 1777903788 | 22.78° C | 41% | 0 hPa | 0 mm | - | - | - |
| 1777903488 | 22.78° C | 40% | 0 hPa | 0 mm | - | - | - |
| 1777901686 | 23.89° C | 38% | 0 hPa | 0 mm | - | - | - |
| 1777901386 | 23.89° C | 38% | 0 hPa | 0 mm | - | - | - |
| 1777901086 | 23.89° C | 39% | 0 hPa | 0 mm | - | - | - |
| 1777900785 | 23.89° C | 38% | 0 hPa | 0 mm | - | - | - |
| 1777900485 | 24.44° C | 37% | 0 hPa | 0 mm | - | - | - |
| 1777899885 | 24.44° C | 36% | 0 hPa | 0 mm | - | - | - |
| 1777898984 | 25° C | 35% | 0 hPa | 0 mm | - | - | - |
| 1777898383 | 24.44° C | 36% | 0 hPa | 0 mm | - | - | - |
| 1777898083 | 24.44° C | 37% | 0 hPa | 0 mm | - | - | - |
| 1777897782 | 24.44° C | 37% | 0 hPa | 0 mm | - | - | - |
* Rain latest hour (hover to see other rain measurements)
** Current wind speed in m/s (hover to see current wind gust speed)